sensor_id;sensor_type;location;lat;lon;timestamp;pressure;altitude;pressure_sealevel;temperature;humidity
76132;BME280;64877;50.994;13.650;2023-05-23T00:00:54;99182.28;;;18.08;63.73
76132;BME280;64877;50.994;13.650;2023-05-23T00:03:20;99187.75;;;18.08;63.60
76132;BME280;64877;50.994;13.650;2023-05-23T00:05:48;99181.09;;;18.11;63.65
76132;BME280;64877;50.994;13.650;2023-05-23T00:08:15;99176.88;;;18.00;63.76
76132;BME280;64877;50.994;13.650;2023-05-23T00:10:41;99176.97;;;18.15;63.69
76132;BME280;64877;50.994;13.650;2023-05-23T00:13:07;99172.53;;;18.14;63.53
76132;BME280;64877;50.994;13.650;2023-05-23T00:15:43;99179.78;;;18.30;63.16
76132;BME280;64877;50.994;13.650;2023-05-23T00:18:09;99182.34;;;18.31;64.27
76132;BME280;64877;50.994;13.650;2023-05-23T00:20:36;99190.84;;;18.37;64.91
76132;BME280;64877;50.994;13.650;2023-05-23T00:23:02;99194.84;;;18.26;65.79
76132;BME280;64877;50.994;13.650;2023-05-23T00:25:28;99204.78;;;18.19;67.04
76132;BME280;64877;50.994;13.650;2023-05-23T00:27:59;99210.41;;;18.25;68.34
76132;BME280;64877;50.994;13.650;2023-05-23T00:30:25;99203.72;;;18.28;69.05
76132;BME280;64877;50.994;13.650;2023-05-23T00:32:52;99196.66;;;18.33;71.88
76132;BME280;64877;50.994;13.650;2023-05-23T00:35:19;99193.41;;;18.07;73.60
76132;BME280;64877;50.994;13.650;2023-05-23T00:37:44;99198.25;;;17.97;74.22
76132;BME280;64877;50.994;13.650;2023-05-23T00:40:10;99190.69;;;18.07;75.90
76132;BME280;64877;50.994;13.650;2023-05-23T00:42:36;99189.72;;;17.92;76.46
76132;BME280;64877;50.994;13.650;2023-05-23T00:45:01;99185.34;;;18.14;74.47
76132;BME280;64877;50.994;13.650;2023-05-23T00:47:27;99186.13;;;18.30;75.12
76132;BME280;64877;50.994;13.650;2023-05-23T00:49:53;99188.47;;;18.02;75.97
76132;BME280;64877;50.994;13.650;2023-05-23T00:52:18;99185.13;;;17.84;77.19
76132;BME280;64877;50.994;13.650;2023-05-23T00:54:43;99182.25;;;17.86;76.76
76132;BME280;64877;50.994;13.650;2023-05-23T00:57:09;99182.59;;;17.82;77.72
76132;BME280;64877;50.994;13.650;2023-05-23T00:59:36;99185.97;;;17.93;76.96
76132;BME280;64877;50.994;13.650;2023-05-23T01:02:02;99177.63;;;17.86;77.43
76132;BME280;64877;50.994;13.650;2023-05-23T01:04:28;99187.22;;;17.82;77.47
76132;BME280;64877;50.994;13.650;2023-05-23T01:06:54;99201.50;;;17.92;77.70
76132;BME280;64877;50.994;13.650;2023-05-23T01:09:20;99208.84;;;17.92;77.05
76132;BME280;64877;50.994;13.650;2023-05-23T01:14:51;99210.28;;;17.71;77.55
76132;BME280;64877;50.994;13.650;2023-05-23T01:17:30;99212.56;;;17.51;78.87
76132;BME280;64877;50.994;13.650;2023-05-23T01:20:05;99210.34;;;17.47;78.50
76132;BME280;64877;50.994;13.650;2023-05-23T01:22:45;99213.91;;;17.55;77.30
76132;BME280;64877;50.994;13.650;2023-05-23T01:28:46;99224.38;;;17.36;79.22
76132;BME280;64877;50.994;13.650;2023-05-23T01:31:11;99222.66;;;17.18;80.89
76132;BME280;64877;50.994;13.650;2023-05-23T01:33:39;99217.34;;;17.25;80.21
76132;BME280;64877;50.994;13.650;2023-05-23T01:36:05;99224.84;;;17.47;79.06
76132;BME280;64877;50.994;13.650;2023-05-23T01:38:32;99222.78;;;17.49;79.39
76132;BME280;64877;50.994;13.650;2023-05-23T01:40:57;99215.44;;;17.50;78.88
76132;BME280;64877;50.994;13.650;2023-05-23T01:43:23;99210.16;;;17.56;78.75
76132;BME280;64877;50.994;13.650;2023-05-23T01:45:51;99210.66;;;17.52;79.21
76132;BME280;64877;50.994;13.650;2023-05-23T01:48:18;99207.44;;;17.48;79.03
76132;BME280;64877;50.994;13.650;2023-05-23T01:50:45;99213.41;;;17.52;78.44
76132;BME280;64877;50.994;13.650;2023-05-23T01:53:11;99205.88;;;17.54;78.14
76132;BME280;64877;50.994;13.650;2023-05-23T01:55:40;99200.97;;;17.41;78.68
76132;BME280;64877;50.994;13.650;2023-05-23T01:58:06;99200.41;;;17.54;76.94
76132;BME280;64877;50.994;13.650;2023-05-23T02:00:31;99196.50;;;17.40;77.37
76132;BME280;64877;50.994;13.650;2023-05-23T02:02:57;99203.19;;;17.46;77.32
76132;BME280;64877;50.994;13.650;2023-05-23T02:05:23;99209.34;;;17.23;78.99
76132;BME280;64877;50.994;13.650;2023-05-23T02:07:48;99200.78;;;17.43;77.32
76132;BME280;64877;50.994;13.650;2023-05-23T02:10:14;99188.50;;;17.47;76.20
76132;BME280;64877;50.994;13.650;2023-05-23T02:12:39;99186.81;;;17.46;76.84
76132;BME280;64877;50.994;13.650;2023-05-23T02:15:05;99187.53;;;17.23;79.38
76132;BME280;64877;50.994;13.650;2023-05-23T02:17:31;99182.75;;;17.09;80.37
76132;BME280;64877;50.994;13.650;2023-05-23T02:19:57;99173.88;;;17.23;79.72
76132;BME280;64877;50.994;13.650;2023-05-23T02:22:23;99170.28;;;17.31;79.50
76132;BME280;64877;50.994;13.650;2023-05-23T02:24:51;99172.69;;;17.26;80.12
76132;BME280;64877;50.994;13.650;2023-05-23T02:27:17;99169.06;;;17.42;77.71
76132;BME280;64877;50.994;13.650;2023-05-23T02:29:43;99166.66;;;17.47;76.68
76132;BME280;64877;50.994;13.650;2023-05-23T02:32:08;99156.44;;;17.33;78.07
76132;BME280;64877;50.994;13.650;2023-05-23T02:34:34;99146.75;;;17.22;78.25
76132;BME280;64877;50.994;13.650;2023-05-23T02:36:59;99151.38;;;17.21;78.74
76132;BME280;64877;50.994;13.650;2023-05-23T02:39:26;99154.25;;;17.20;79.92
76132;BME280;64877;50.994;13.650;2023-05-23T02:41:51;99149.81;;;17.27;79.03
76132;BME280;64877;50.994;13.650;2023-05-23T02:44:16;99144.50;;;17.34;79.14
76132;BME280;64877;50.994;13.650;2023-05-23T02:46:44;99145.16;;;17.44;78.65
76132;BME280;64877;50.994;13.650;2023-05-23T02:49:10;99138.34;;;17.40;78.15
76132;BME280;64877;50.994;13.650;2023-05-23T02:51:35;99136.31;;;17.42;78.57
76132;BME280;64877;50.994;13.650;2023-05-23T02:54:00;99121.59;;;17.51;76.60
76132;BME280;64877;50.994;13.650;2023-05-23T02:56:26;99110.50;;;17.44;76.40
76132;BME280;64877;50.994;13.650;2023-05-23T02:58:51;99121.09;;;17.39;76.51
76132;BME280;64877;50.994;13.650;2023-05-23T03:01:17;99113.81;;;17.23;77.74
76132;BME280;64877;50.994;13.650;2023-05-23T03:03:43;99105.25;;;17.35;76.97
76132;BME280;64877;50.994;13.650;2023-05-23T03:06:08;99106.94;;;17.44;76.55
76132;BME280;64877;50.994;13.650;2023-05-23T03:08:42;99112.78;;;17.24;77.16
76132;BME280;64877;50.994;13.650;2023-05-23T03:11:07;99112.31;;;17.21;77.02
76132;BME280;64877;50.994;13.650;2023-05-23T03:13:34;99102.06;;;17.15;78.35
76132;BME280;64877;50.994;13.650;2023-05-23T03:15:59;99103.25;;;17.20;78.06
76132;BME280;64877;50.994;13.650;2023-05-23T03:18:24;99105.53;;;17.00;79.08
76132;BME280;64877;50.994;13.650;2023-05-23T03:20:50;99102.91;;;17.15;79.07
76132;BME280;64877;50.994;13.650;2023-05-23T03:23:15;99108.09;;;16.94;79.48
76132;BME280;64877;50.994;13.650;2023-05-23T03:25:42;99105.53;;;17.00;79.38
76132;BME280;64877;50.994;13.650;2023-05-23T03:28:07;99099.59;;;16.97;79.65
76132;BME280;64877;50.994;13.650;2023-05-23T03:30:33;99095.31;;;16.94;80.30
76132;BME280;64877;50.994;13.650;2023-05-23T03:32:58;99109.31;;;16.91;79.83
76132;BME280;64877;50.994;13.650;2023-05-23T03:35:24;99102.31;;;16.97;80.01
76132;BME280;64877;50.994;13.650;2023-05-23T03:37:49;99098.88;;;16.95;80.21
76132;BME280;64877;50.994;13.650;2023-05-23T03:40:14;99098.56;;;16.90;80.36
76132;BME280;64877;50.994;13.650;2023-05-23T03:42:40;99096.84;;;16.89;80.57
76132;BME280;64877;50.994;13.650;2023-05-23T03:45:05;99099.59;;;16.80;81.53
76132;BME280;64877;50.994;13.650;2023-05-23T03:47:31;99094.13;;;16.97;80.05
76132;BME280;64877;50.994;13.650;2023-05-23T03:49:56;99092.91;;;16.99;80.38
76132;BME280;64877;50.994;13.650;2023-05-23T03:52:22;99103.09;;;17.22;78.25
76132;BME280;64877;50.994;13.650;2023-05-23T03:54:47;99107.41;;;17.00;79.25
76132;BME280;64877;50.994;13.650;2023-05-23T03:57:13;99116.25;;;17.10;79.11
76132;BME280;64877;50.994;13.650;2023-05-23T03:59:39;99123.94;;;17.07;79.24
76132;BME280;64877;50.994;13.650;2023-05-23T04:02:04;99123.09;;;17.06;79.27
76132;BME280;64877;50.994;13.650;2023-05-23T04:04:30;99136.75;;;17.06;79.45
76132;BME280;64877;50.994;13.650;2023-05-23T04:06:56;99136.69;;;17.14;79.29
76132;BME280;64877;50.994;13.650;2023-05-23T04:09:22;99143.38;;;16.95;80.77
76132;BME280;64877;50.994;13.650;2023-05-23T04:11:48;99139.81;;;17.11;78.71
76132;BME280;64877;50.994;13.650;2023-05-23T04:14:14;99135.31;;;17.26;78.19
76132;BME280;64877;50.994;13.650;2023-05-23T04:16:39;99135.53;;;17.17;78.66
76132;BME280;64877;50.994;13.650;2023-05-23T04:19:06;99130.91;;;17.09;78.49
76132;BME280;64877;50.994;13.650;2023-05-23T04:21:32;99132.94;;;17.15;78.78
76132;BME280;64877;50.994;13.650;2023-05-23T04:23:59;99135.00;;;17.05;79.30
76132;BME280;64877;50.994;13.650;2023-05-23T04:26:24;99140.47;;;17.05;80.10
76132;BME280;64877;50.994;13.650;2023-05-23T04:28:50;99147.81;;;17.04;80.12
76132;BME280;64877;50.994;13.650;2023-05-23T04:31:19;99147.97;;;17.11;79.95
76132;BME280;64877;50.994;13.650;2023-05-23T04:33:44;99160.25;;;17.07;79.82
76132;BME280;64877;50.994;13.650;2023-05-23T04:36:10;99153.97;;;17.07;80.05
76132;BME280;64877;50.994;13.650;2023-05-23T04:38:35;99164.69;;;17.08;80.90
76132;BME280;64877;50.994;13.650;2023-05-23T04:41:03;99165.88;;;17.22;80.29
76132;BME280;64877;50.994;13.650;2023-05-23T04:43:30;99159.19;;;17.33;79.12
76132;BME280;64877;50.994;13.650;2023-05-23T04:46:00;99168.88;;;17.35;78.53
76132;BME280;64877;50.994;13.650;2023-05-23T04:48:26;99164.47;;;17.34;77.69
76132;BME280;64877;50.994;13.650;2023-05-23T04:50:51;99161.91;;;17.41;77.70
76132;BME280;64877;50.994;13.650;2023-05-23T04:53:17;99159.84;;;17.35;76.57
76132;BME280;64877;50.994;13.650;2023-05-23T04:55:43;99161.25;;;17.30;76.38
76132;BME280;64877;50.994;13.650;2023-05-23T04:58:08;99153.72;;;17.33;76.34
76132;BME280;64877;50.994;13.650;2023-05-23T05:00:34;99152.84;;;17.40;76.04
76132;BME280;64877;50.994;13.650;2023-05-23T05:03:00;99161.00;;;17.56;75.35
76132;BME280;64877;50.994;13.650;2023-05-23T05:05:25;99151.44;;;17.61;75.45
76132;BME280;64877;50.994;13.650;2023-05-23T05:07:51;99154.09;;;17.69;75.28
76132;BME280;64877;50.994;13.650;2023-05-23T05:10:16;99165.88;;;17.69;75.62
76132;BME280;64877;50.994;13.650;2023-05-23T05:12:43;99154.78;;;17.79;75.27
76132;BME280;64877;50.994;13.650;2023-05-23T05:15:09;99151.81;;;17.89;75.61
76132;BME280;64877;50.994;13.650;2023-05-23T05:17:35;99164.75;;;17.95;75.62
76132;BME280;64877;50.994;13.650;2023-05-23T05:20:02;99155.69;;;18.02;75.40
76132;BME280;64877;50.994;13.650;2023-05-23T05:22:32;99156.19;;;18.06;75.42
76132;BME280;64877;50.994;13.650;2023-05-23T05:24:59;99160.63;;;18.07;75.23
76132;BME280;64877;50.994;13.650;2023-05-23T05:27:24;99161.25;;;18.17;75.10
76132;BME280;64877;50.994;13.650;2023-05-23T05:29:50;99162.28;;;18.16;75.65
76132;BME280;64877;50.994;13.650;2023-05-23T05:32:15;99163.63;;;18.43;74.96
76132;BME280;64877;50.994;13.650;2023-05-23T05:34:41;99161.81;;;18.58;74.50
76132;BME280;64877;50.994;13.650;2023-05-23T05:37:07;99165.47;;;18.51;75.22
76132;BME280;64877;50.994;13.650;2023-05-23T05:39:32;99175.06;;;18.47;74.85
76132;BME280;64877;50.994;13.650;2023-05-23T05:41:58;99166.84;;;18.47;74.56
76132;BME280;64877;50.994;13.650;2023-05-23T05:44:25;99168.84;;;18.53;74.77
76132;BME280;64877;50.994;13.650;2023-05-23T05:46:51;99166.81;;;18.55;75.07
76132;BME280;64877;50.994;13.650;2023-05-23T05:49:16;99160.47;;;18.54;75.30
76132;BME280;64877;50.994;13.650;2023-05-23T05:51:41;99159.63;;;18.54;75.41
76132;BME280;64877;50.994;13.650;2023-05-23T05:54:07;99162.72;;;18.51;75.56
76132;BME280;64877;50.994;13.650;2023-05-23T05:56:33;99168.13;;;18.59;76.04
76132;BME280;64877;50.994;13.650;2023-05-23T05:58:58;99180.03;;;18.66;75.48
76132;BME280;64877;50.994;13.650;2023-05-23T06:01:23;99181.22;;;18.72;75.30
76132;BME280;64877;50.994;13.650;2023-05-23T06:03:49;99175.63;;;18.65;74.77
76132;BME280;64877;50.994;13.650;2023-05-23T06:06:15;99178.69;;;18.70;74.69
76132;BME280;64877;50.994;13.650;2023-05-23T06:08:40;99185.53;;;18.66;74.51
76132;BME280;64877;50.994;13.650;2023-05-23T06:11:06;99178.16;;;18.67;74.46
76132;BME280;64877;50.994;13.650;2023-05-23T06:13:31;99191.00;;;18.66;74.85
76132;BME280;64877;50.994;13.650;2023-05-23T06:15:57;99182.59;;;18.68;74.45
76132;BME280;64877;50.994;13.650;2023-05-23T06:18:22;99192.06;;;18.57;74.88
76132;BME280;64877;50.994;13.650;2023-05-23T06:20:48;99197.53;;;18.57;74.15
76132;BME280;64877;50.994;13.650;2023-05-23T06:23:13;99194.16;;;18.55;73.90
76132;BME280;64877;50.994;13.650;2023-05-23T06:25:38;99196.78;;;18.71;73.95
76132;BME280;64877;50.994;13.650;2023-05-23T06:28:04;99199.16;;;18.74;73.07
76132;BME280;64877;50.994;13.650;2023-05-23T06:30:29;99195.78;;;18.64;73.40
76132;BME280;64877;50.994;13.650;2023-05-23T06:32:55;99193.44;;;18.84;73.15
76132;BME280;64877;50.994;13.650;2023-05-23T06:35:20;99195.88;;;18.79;73.55
76132;BME280;64877;50.994;13.650;2023-05-23T06:37:45;99200.50;;;18.78;72.72
76132;BME280;64877;50.994;13.650;2023-05-23T06:40:11;99208.09;;;18.91;72.99
76132;BME280;64877;50.994;13.650;2023-05-23T06:42:38;99212.13;;;18.80;72.55
76132;BME280;64877;50.994;13.650;2023-05-23T06:45:04;99210.09;;;18.74;71.96
76132;BME280;64877;50.994;13.650;2023-05-23T06:47:29;99217.00;;;18.70;72.19
76132;BME280;64877;50.994;13.650;2023-05-23T06:49:55;99222.25;;;18.72;72.59
76132;BME280;64877;50.994;13.650;2023-05-23T06:52:20;99221.91;;;18.75;71.93
76132;BME280;64877;50.994;13.650;2023-05-23T06:54:45;99221.59;;;18.70;71.72
76132;BME280;64877;50.994;13.650;2023-05-23T06:57:11;99229.81;;;18.70;72.05
76132;BME280;64877;50.994;13.650;2023-05-23T06:59:36;99221.63;;;18.84;71.87
76132;BME280;64877;50.994;13.650;2023-05-23T07:02:01;99220.94;;;18.91;71.60
76132;BME280;64877;50.994;13.650;2023-05-23T07:04:27;99219.09;;;19.06;70.88
76132;BME280;64877;50.994;13.650;2023-05-23T07:06:52;99223.16;;;19.10;71.28
76132;BME280;64877;50.994;13.650;2023-05-23T07:09:18;99224.69;;;19.27;70.92
76132;BME280;64877;50.994;13.650;2023-05-23T07:11:43;99219.03;;;19.29;70.17
76132;BME280;64877;50.994;13.650;2023-05-23T07:14:08;99227.09;;;19.30;70.25
76132;BME280;64877;50.994;13.650;2023-05-23T07:16:34;99219.06;;;19.44;68.31
76132;BME280;64877;50.994;13.650;2023-05-23T07:19:00;99237.28;;;19.36;68.29
76132;BME280;64877;50.994;13.650;2023-05-23T07:21:26;99229.72;;;19.38;67.99
76132;BME280;64877;50.994;13.650;2023-05-23T07:23:52;99229.25;;;19.35;67.98
76132;BME280;64877;50.994;13.650;2023-05-23T07:26:17;99231.16;;;19.34;67.76
76132;BME280;64877;50.994;13.650;2023-05-23T07:28:43;99228.72;;;19.54;68.22
76132;BME280;64877;50.994;13.650;2023-05-23T07:31:09;99224.72;;;19.65;67.38
76132;BME280;64877;50.994;13.650;2023-05-23T07:33:36;99230.91;;;19.88;66.75
76132;BME280;64877;50.994;13.650;2023-05-23T07:36:01;99233.56;;;19.97;65.86
76132;BME280;64877;50.994;13.650;2023-05-23T07:38:27;99234.91;;;20.01;65.50
76132;BME280;64877;50.994;13.650;2023-05-23T07:40:52;99231.69;;;19.97;65.42
76132;BME280;64877;50.994;13.650;2023-05-23T07:43:17;99226.28;;;20.04;65.12
76132;BME280;64877;50.994;13.650;2023-05-23T07:45:43;99233.25;;;20.21;64.67
76132;BME280;64877;50.994;13.650;2023-05-23T07:48:08;99233.81;;;20.31;63.99
76132;BME280;64877;50.994;13.650;2023-05-23T07:50:34;99227.38;;;20.39;63.91
76132;BME280;64877;50.994;13.650;2023-05-23T07:52:59;99223.38;;;20.42;63.49
76132;BME280;64877;50.994;13.650;2023-05-23T07:55:24;99235.63;;;20.24;64.38
76132;BME280;64877;50.994;13.650;2023-05-23T07:57:50;99237.50;;;20.24;64.44
76132;BME280;64877;50.994;13.650;2023-05-23T08:00:17;99237.91;;;20.06;64.72
76132;BME280;64877;50.994;13.650;2023-05-23T08:02:42;99239.97;;;20.04;65.17
76132;BME280;64877;50.994;13.650;2023-05-23T08:05:08;99244.25;;;20.06;65.30
76132;BME280;64877;50.994;13.650;2023-05-23T08:07:33;99240.56;;;20.14;65.35
76132;BME280;64877;50.994;13.650;2023-05-23T08:09:59;99242.50;;;20.35;64.84
76132;BME280;64877;50.994;13.650;2023-05-23T08:12:24;99235.47;;;20.62;64.39
76132;BME280;64877;50.994;13.650;2023-05-23T08:14:49;99230.13;;;20.97;62.52
76132;BME280;64877;50.994;13.650;2023-05-23T08:17:15;99234.19;;;21.01;62.59
76132;BME280;64877;50.994;13.650;2023-05-23T08:19:40;99244.84;;;21.10;61.74
76132;BME280;64877;50.994;13.650;2023-05-23T08:22:06;99239.63;;;20.94;62.62
76132;BME280;64877;50.994;13.650;2023-05-23T08:24:31;99244.75;;;20.82;62.58
76132;BME280;64877;50.994;13.650;2023-05-23T08:26:58;99243.28;;;20.80;62.48
76132;BME280;64877;50.994;13.650;2023-05-23T08:29:23;99244.38;;;20.85;62.41
76132;BME280;64877;50.994;13.650;2023-05-23T08:31:49;99252.09;;;20.97;62.33
76132;BME280;64877;50.994;13.650;2023-05-23T08:34:14;99243.91;;;20.82;62.41
76132;BME280;64877;50.994;13.650;2023-05-23T08:36:40;99245.75;;;20.75;62.90
76132;BME280;64877;50.994;13.650;2023-05-23T08:39:07;99254.72;;;20.47;63.54
76132;BME280;64877;50.994;13.650;2023-05-23T08:41:33;99264.75;;;20.25;64.59
76132;BME280;64877;50.994;13.650;2023-05-23T08:43:59;99275.53;;;19.82;66.66
76132;BME280;64877;50.994;13.650;2023-05-23T08:46:25;99277.69;;;19.72;66.26
76132;BME280;64877;50.994;13.650;2023-05-23T08:48:54;99275.72;;;19.66;66.51
76132;BME280;64877;50.994;13.650;2023-05-23T08:51:25;99280.56;;;19.41;66.94
76132;BME280;64877;50.994;13.650;2023-05-23T08:53:51;99276.47;;;19.37;67.28
76132;BME280;64877;50.994;13.650;2023-05-23T08:56:18;99274.44;;;19.16;68.02
76132;BME280;64877;50.994;13.650;2023-05-23T08:58:44;99284.34;;;19.17;68.27
76132;BME280;64877;50.994;13.650;2023-05-23T09:01:12;99282.53;;;19.09;68.88
76132;BME280;64877;50.994;13.650;2023-05-23T09:03:39;99280.28;;;19.13;68.56
76132;BME280;64877;50.994;13.650;2023-05-23T09:06:09;99280.28;;;19.13;68.68
76132;BME280;64877;50.994;13.650;2023-05-23T09:08:35;99284.41;;;19.09;68.94
76132;BME280;64877;50.994;13.650;2023-05-23T09:11:02;99289.88;;;19.09;69.38
76132;BME280;64877;50.994;13.650;2023-05-23T09:13:29;99293.31;;;19.11;69.19
76132;BME280;64877;50.994;13.650;2023-05-23T09:18:41;99279.56;;;19.34;68.74
76132;BME280;64877;50.994;13.650;2023-05-23T09:21:08;99293.00;;;19.44;68.66
76132;BME280;64877;50.994;13.650;2023-05-23T09:23:35;99286.13;;;19.48;68.10
76132;BME280;64877;50.994;13.650;2023-05-23T09:26:11;99291.53;;;19.56;67.85
76132;BME280;64877;50.994;13.650;2023-05-23T09:28:41;99294.09;;;19.57;67.36
76132;BME280;64877;50.994;13.650;2023-05-23T09:31:07;99294.94;;;19.58;67.33
76132;BME280;64877;50.994;13.650;2023-05-23T09:33:47;99309.53;;;19.35;68.47
76132;BME280;64877;50.994;13.650;2023-05-23T09:36:13;99304.91;;;19.36;68.68
76132;BME280;64877;50.994;13.650;2023-05-23T09:38:40;99312.63;;;19.32;69.30
76132;BME280;64877;50.994;13.650;2023-05-23T09:41:06;99316.16;;;19.18;69.22
76132;BME280;64877;50.994;13.650;2023-05-23T09:43:32;99323.03;;;19.14;69.07
76132;BME280;64877;50.994;13.650;2023-05-23T09:46:16;99323.22;;;19.13;69.25
76132;BME280;64877;50.994;13.650;2023-05-23T09:48:49;99324.19;;;18.97;70.36
76132;BME280;64877;50.994;13.650;2023-05-23T09:51:21;99325.41;;;18.94;69.02
76132;BME280;64877;50.994;13.650;2023-05-23T09:53:48;99325.66;;;19.07;68.08
76132;BME280;64877;50.994;13.650;2023-05-23T09:56:17;99325.78;;;19.14;67.80
76132;BME280;64877;50.994;13.650;2023-05-23T09:58:47;99328.59;;;19.06;67.01
76132;BME280;64877;50.994;13.650;2023-05-23T10:01:13;99319.44;;;19.14;66.91
76132;BME280;64877;50.994;13.650;2023-05-23T10:03:44;99332.91;;;19.00;65.99
76132;BME280;64877;50.994;13.650;2023-05-23T10:06:24;99331.63;;;19.11;66.33
76132;BME280;64877;50.994;13.650;2023-05-23T10:09:00;99336.09;;;19.04;66.01
76132;BME280;64877;50.994;13.650;2023-05-23T10:14:00;99336.13;;;19.50;63.44
76132;BME280;64877;50.994;13.650;2023-05-23T10:16:33;99336.34;;;19.63;62.08
76132;BME280;64877;50.994;13.650;2023-05-23T10:19:10;99334.50;;;19.78;61.46
76132;BME280;64877;50.994;13.650;2023-05-23T10:21:43;99335.19;;;19.80;61.41
76132;BME280;64877;50.994;13.650;2023-05-23T10:24:13;99345.91;;;20.05;61.01
76132;BME280;64877;50.994;13.650;2023-05-23T10:26:39;99350.72;;;20.18;61.19
76132;BME280;64877;50.994;13.650;2023-05-23T10:29:06;99343.44;;;20.10;61.19
76132;BME280;64877;50.994;13.650;2023-05-23T10:31:32;99346.53;;;20.07;61.71
76132;BME280;64877;50.994;13.650;2023-05-23T10:34:11;99347.22;;;19.94;62.73
76132;BME280;64877;50.994;13.650;2023-05-23T10:36:54;99347.38;;;19.93;62.70
76132;BME280;64877;50.994;13.650;2023-05-23T10:42:10;99350.75;;;19.65;62.99
76132;BME280;64877;50.994;13.650;2023-05-23T10:44:36;99358.41;;;19.70;64.23
76132;BME280;64877;50.994;13.650;2023-05-23T10:47:02;99357.56;;;19.69;63.82
76132;BME280;64877;50.994;13.650;2023-05-23T10:52:07;99362.00;;;19.70;64.33
76132;BME280;64877;50.994;13.650;2023-05-23T10:54:40;99370.38;;;19.46;65.07
76132;BME280;64877;50.994;13.650;2023-05-23T10:57:09;99363.84;;;19.24;65.99
76132;BME280;64877;50.994;13.650;2023-05-23T10:59:36;99365.25;;;19.43;65.03
76132;BME280;64877;50.994;13.650;2023-05-23T11:02:02;99371.41;;;19.68;64.51
76132;BME280;64877;50.994;13.650;2023-05-23T11:04:29;99363.38;;;19.89;63.10
76132;BME280;64877;50.994;13.650;2023-05-23T11:06:55;99364.03;;;20.06;61.86
76132;BME280;64877;50.994;13.650;2023-05-23T11:09:22;99365.38;;;20.10;62.79
76132;BME280;64877;50.994;13.650;2023-05-23T11:14:16;99365.75;;;20.36;60.80
76132;BME280;64877;50.994;13.650;2023-05-23T11:16:43;99375.97;;;20.43;60.21
76132;BME280;64877;50.994;13.650;2023-05-23T11:21:46;99371.63;;;20.48;59.76
76132;BME280;64877;50.994;13.650;2023-05-23T11:24:13;99372.75;;;20.24;59.06
76132;BME280;64877;50.994;13.650;2023-05-23T11:26:38;99375.50;;;20.39;60.03
76132;BME280;64877;50.994;13.650;2023-05-23T11:29:08;99369.91;;;20.32;59.91
76132;BME280;64877;50.994;13.650;2023-05-23T11:31:37;99380.31;;;20.22;60.24
76132;BME280;64877;50.994;13.650;2023-05-23T11:34:02;99381.34;;;20.21;60.64
76132;BME280;64877;50.994;13.650;2023-05-23T11:36:29;99374.53;;;20.32;59.62
76132;BME280;64877;50.994;13.650;2023-05-23T11:38:55;99368.53;;;20.51;60.43
76132;BME280;64877;50.994;13.650;2023-05-23T11:41:21;99374.25;;;20.42;59.47
76132;BME280;64877;50.994;13.650;2023-05-23T11:43:50;99376.66;;;20.45;59.24
76132;BME280;64877;50.994;13.650;2023-05-23T11:46:16;99372.00;;;20.30;59.98
76132;BME280;64877;50.994;13.650;2023-05-23T11:48:46;99373.69;;;20.31;60.13
76132;BME280;64877;50.994;13.650;2023-05-23T11:51:12;99379.75;;;20.27;59.39
76132;BME280;64877;50.994;13.650;2023-05-23T11:53:38;99371.03;;;20.23;59.76
76132;BME280;64877;50.994;13.650;2023-05-23T11:56:03;99371.31;;;20.13;59.40
76132;BME280;64877;50.994;13.650;2023-05-23T11:58:34;99371.03;;;20.08;59.65
76132;BME280;64877;50.994;13.650;2023-05-23T12:01:05;99368.50;;;20.36;59.98
76132;BME280;64877;50.994;13.650;2023-05-23T12:03:31;99364.09;;;20.50;59.42
76132;BME280;64877;50.994;13.650;2023-05-23T12:05:57;99366.63;;;20.67;59.58
76132;BME280;64877;50.994;13.650;2023-05-23T12:08:23;99361.69;;;20.77;61.44
76132;BME280;64877;50.994;13.650;2023-05-23T12:10:59;99365.47;;;20.76;60.89
76132;BME280;64877;50.994;13.650;2023-05-23T12:13:25;99359.72;;;20.71;59.63
76132;BME280;64877;50.994;13.650;2023-05-23T12:15:55;99363.28;;;20.71;61.25
76132;BME280;64877;50.994;13.650;2023-05-23T12:18:22;99357.34;;;20.68;60.97
76132;BME280;64877;50.994;13.650;2023-05-23T12:20:49;99363.25;;;20.50;59.36
76132;BME280;64877;50.994;13.650;2023-05-23T12:23:23;99351.78;;;20.61;60.63
76132;BME280;64877;50.994;13.650;2023-05-23T12:25:50;99360.56;;;20.71;60.62
76132;BME280;64877;50.994;13.650;2023-05-23T12:28:16;99365.41;;;20.69;59.34
76132;BME280;64877;50.994;13.650;2023-05-23T12:30:42;99363.28;;;20.71;58.67
76132;BME280;64877;50.994;13.650;2023-05-23T12:33:08;99350.63;;;20.70;59.41
76132;BME280;64877;50.994;13.650;2023-05-23T12:35:34;99360.47;;;20.79;60.80
76132;BME280;64877;50.994;13.650;2023-05-23T12:37:59;99352.34;;;20.56;58.44
76132;BME280;64877;50.994;13.650;2023-05-23T12:40:25;99357.91;;;20.63;59.39
76132;BME280;64877;50.994;13.650;2023-05-23T12:42:54;99361.69;;;20.77;60.15
76132;BME280;64877;50.994;13.650;2023-05-23T12:45:30;99362.94;;;20.45;59.43
76132;BME280;64877;50.994;13.650;2023-05-23T12:47:56;99364.09;;;20.50;61.13
76132;BME280;64877;50.994;13.650;2023-05-23T12:50:22;99367.28;;;20.39;61.87
76132;BME280;64877;50.994;13.650;2023-05-23T12:52:47;99373.69;;;20.31;62.47
76132;BME280;64877;50.994;13.650;2023-05-23T12:55:13;99377.00;;;20.12;61.05
76132;BME280;64877;50.994;13.650;2023-05-23T12:57:38;99373.88;;;20.00;63.31
76132;BME280;64877;50.994;13.650;2023-05-23T13:00:04;99383.09;;;19.84;62.68
76132;BME280;64877;50.994;13.650;2023-05-23T13:02:30;99377.41;;;19.71;62.66
76132;BME280;64877;50.994;13.650;2023-05-23T13:04:56;99378.16;;;19.65;63.10
76132;BME280;64877;50.994;13.650;2023-05-23T13:07:22;99376.53;;;19.48;63.13
76132;BME280;64877;50.994;13.650;2023-05-23T13:09:47;99377.16;;;19.35;62.93